Latest Weather Observations for Portland Airport

IDV60801

Issued at 7:05 pm EST Thursday 28 August 2014 (issued every 30 minutes, with the page automatically refreshed every 10 minutes)

About weather observations | Map of weather stations | Latest weather observations for VIC | Other Formats
Station Details ID: 090171 Name: CASHMORE AIRPORT Lat: -38.31 Lon: 141.47 Height: 80.9 m
Data from the previous 72 hours. | See also: Recent months at Portland Airport
Date/Time
EST
Temp
°C
App
Temp
°C
Dew
Point
Rel
Hum
%
Delta-T
°C
Wind Press
QNH
hPa
Press
MSL
hPa
Rain
since 9 am
mm
Dir
 
Spd
km/h
Gust
km/h
Spd
kts
Gust
kts
28/07:00pm 9.5 7.8 7.6 88 0.9 WNW 6 7 3 4 1028.3 1028.4 0.0
28/06:30pm 10.6 8.8 8.0 84 1.3 WNW 7 9 4 5 1028.3 1028.4 0.0
28/06:00pm 12.6 10.5 8.3 75 2.1 WNW 9 11 5 6 1028.0 1028.1 0.0
28/05:30pm 14.3 11.9 8.5 68 2.9 W 11 15 6 8 1027.8 1027.9 0.0
28/05:00pm 15.1 12.1 7.9 62 3.6 W 13 19 7 10 1027.6 1027.7 0.0
28/04:30pm 15.7 12.9 8.4 62 3.7 W 13 19 7 10 1027.4 1027.5 0.0
28/04:00pm 15.8 12.4 7.6 58 4.1 W 15 20 8 11 1027.4 1027.5 0.0
28/03:30pm 16.0 12.3 8.0 59 4.0 W 17 20 9 11 1027.4 1027.5 0.0
28/03:00pm 15.9 12.6 8.2 60 3.9 W 15 20 8 11 1027.5 1027.6 0.0
28/02:30pm 16.1 12.5 8.3 60 4.0 W 17 20 9 11 1027.7 1027.8 0.0
28/02:00pm 16.2 13.5 8.9 62 3.7 W 13 19 7 10 1027.8 1027.9 0.0
28/01:30pm 16.0 12.2 7.7 58 4.2 W 17 22 9 12 1027.8 1027.9 0.0
28/01:00pm 15.9 12.1 7.4 57 4.2 W 17 20 9 11 1028.1 1028.2 0.0
28/12:30pm 15.9 12.6 8.2 60 3.9 W 15 20 8 11 1028.3 1028.4 0.0
28/12:00pm 16.3 14.0 10.6 69 3.0 W 13 17 7 9 1028.5 1028.6 0.0
28/11:30am 15.5 13.1 10.1 70 2.8 W 13 17 7 9 1028.8 1028.9 0.0
28/11:00am 15.2 13.0 10.8 75 2.3 W 13 19 7 10 1029.0 1029.1 0.0
28/10:30am 13.3 13.3 11.2 87 1.1 N 2 7 1 4 1029.1 1029.2 0.0
28/10:00am 12.5 13.1 11.9 96 0.3 CALM 0 0 0 0 1029.3 1029.4 0.0
28/09:43am 12.3 12.2 12.0 98 0.2 N 4 7 2 4 1029.3 1029.4 0.0
28/09:30am 11.8 12.3 11.6 99 0.1 CALM 0 0 0 0 1029.3 1029.4 0.0
28/09:23am 11.8 12.3 11.6 99 0.1 CALM 0 0 0 0 1029.3 1029.4 0.0
28/09:00am 11.7 12.2 11.5 99 0.1 CALM 0 0 0 0 1029.3 1029.4 0.4
28/08:30am 9.2 9.0 9.1 99 0.0 CALM 0 0 0 0 1029.2 1029.3 0.4
28/08:00am 6.2 5.3 6.1 99 0.0 CALM 0 0 0 0 1029.0 1029.1 0.4
28/07:30am 5.1 4.0 5.0 99 0.0 CALM 0 0 0 0 1028.7 1028.8 0.4
28/07:28am 5.1 4.0 5.0 99 0.0 CALM 0 0 0 0 1028.7 1028.8 0.4
28/07:23am 4.8 3.6 4.7 99 0.0 CALM 0 0 0 0 1028.6 1028.7 0.4
28/07:16am 5.3 4.2 5.2 99 0.0 CALM 0 0 0 0 1028.5 1028.6 0.4
28/07:00am 3.8 1.6 3.5 98 0.1 N 4 6 2 3 1028.4 1028.5 0.4
28/06:41am 4.2 2.9 4.1 99 0.0 CALM 0 0 0 0 1028.2 1028.3 0.4
28/06:38am 4.6 3.4 4.5 99 0.0 CALM 0 0 0 0 1028.2 1028.3 0.4
28/06:30am 4.7 3.5 4.6 99 0.0 CALM 0 0 0 0 1028.2 1028.3 0.4
28/06:08am 4.5 2.1 4.2 98 0.1 N 6 7 3 4 1028.0 1028.1 0.2
28/06:00am 5.6 3.4 5.5 99 0.0 N 6 7 3 4 1027.9 1028.0 0.2
28/05:42am 5.3 3.1 5.2 99 0.0 N 6 9 3 5 1027.8 1027.9 0.2
28/05:30am 6.3 4.1 6.2 99 0.0 N 7 9 4 5 1027.7 1027.8 0.2
28/05:05am 6.2 3.6 5.9 98 0.1 N 9 9 5 5 1027.7 1027.8 0.2
28/05:00am 8.0 5.8 7.9 99 0.0 N 9 9 5 5 1027.6 1027.7 0.2
28/04:30am 8.1 5.6 8.0 99 0.0 N 11 13 6 7 1027.7 1027.8 0.0
28/04:22am 8.1 5.6 8.0 99 0.0 N 11 13 6 7 1027.6 1027.7 0.0
28/04:00am 8.3 6.2 8.2 99 0.0 N 9 11 5 6 1027.5 1027.6 0.0
28/03:30am 8.2 5.7 8.1 99 0.0 N 11 13 6 7 1027.5 1027.6 0.0
28/03:05am 8.6 6.2 8.5 99 0.0 N 11 13 6 7 1027.7 1027.8 0.0
28/03:03am 8.7 6.3 8.6 99 0.0 N 11 13 6 7 1027.7 1027.8 0.0
28/03:00am 8.8 6.4 8.7 99 0.0 N 11 15 6 8 1027.7 1027.8 0.0
28/02:30am 8.2 5.3 8.1 99 0.0 N 13 15 7 8 1027.8 1027.9 0.0
28/02:14am 7.5 4.8 7.2 98 0.1 N 11 13 6 7 1027.9 1028.0 0.0
28/02:00am 7.8 4.8 7.5 98 0.1 N 13 15 7 8 1028.1 1028.2 0.0
28/01:47am 7.5 4.8 7.2 98 0.1 N 11 13 6 7 1028.3 1028.4 0.0
28/01:31am 8.0 5.0 7.7 98 0.1 N 13 17 7 9 1028.3 1028.4 0.0
28/01:30am 8.0 5.0 7.7 98 0.1 N 13 17 7 9 1028.3 1028.4 0.0
28/01:00am 8.3 5.8 8.0 98 0.1 N 11 15 6 8 1028.5 1028.6 0.0
28/12:32am 8.7 6.2 8.4 98 0.1 N 11 13 6 7 1028.6 1028.7 0.0
28/12:30am 8.8 6.4 8.5 98 0.1 N 11 13 6 7 1028.6 1028.7 0.0
28/12:00am 9.2 6.1 8.9 98 0.1 N 15 19 8 10 1028.5 1028.6 0.0
 
Date/Time
EST
Temp
°C
App
Temp
°C
Dew
Point
Rel
Hum
%
Delta-T
°C
Wind Press
QNH
hPa
Press
MSL
hPa
Rain
since 9 am
mm
Dir
 
Spd
km/h
Gust
km/h
Spd
kts
Gust
kts
27/11:30pm 7.8 5.9 7.4 97 0.2 WSW 7 9 4 5 1028.9 1029.0 0.0
27/11:00pm 8.8 7.1 8.4 97 0.2 WSW 7 9 4 5 1028.8 1028.9 0.0
27/10:52pm 8.1 6.2 7.7 97 0.2 WSW 7 9 4 5 1028.9 1029.0 0.0
27/10:49pm 7.7 5.7 7.3 97 0.2 WSW 7 9 4 5 1028.9 1029.0 0.0
27/10:30pm 7.2 6.5 6.8 97 0.2 CALM 0 0 0 0 1029.0 1029.1 0.0
27/10:00pm 8.7 7.0 8.3 97 0.2 WSW 7 9 4 5 1028.8 1028.9 0.0
27/09:30pm 8.1 7.5 7.5 96 0.3 CALM 0 7 0 4 1028.8 1028.9 0.0
27/09:07pm 8.3 7.0 7.5 95 0.4 WSW 4 7 2 4 1028.7 1028.8 0.0
27/09:00pm 9.0 7.5 8.4 96 0.3 WSW 6 7 3 4 1028.6 1028.7 0.0
27/08:30pm 9.3 7.6 8.5 95 0.4 WSW 7 9 4 5 1028.8 1028.9 0.0
27/08:00pm 9.6 9.3 8.7 94 0.4 CALM 0 0 0 0 1028.5 1028.6 0.0
27/07:30pm 9.6 9.3 8.5 93 0.5 CALM 0 6 0 3 1028.3 1028.4 0.0
27/07:00pm 10.4 9.0 8.8 90 0.8 SW 6 7 3 4 1028.0 1028.1 0.0
27/06:30pm 11.6 9.8 9.3 86 1.2 WSW 9 13 5 7 1027.8 1027.9 0.0
27/06:00pm 12.8 9.9 9.8 82 1.5 WSW 15 17 8 9 1027.6 1027.7 0.0
27/05:30pm 13.6 10.7 9.5 76 2.1 WSW 15 19 8 10 1027.4 1027.5 0.0
27/05:00pm 14.5 10.7 8.9 69 2.8 WSW 19 24 10 13 1027.2 1027.3 0.0
27/04:30pm 15.1 11.3 9.2 68 3.0 WSW 19 22 10 12 1027.1 1027.2 0.0
27/04:00pm 15.3 11.5 9.7 69 2.9 W 20 28 11 15 1027.0 1027.1 0.0
27/03:30pm 15.4 11.3 8.6 64 3.5 W 20 26 11 14 1026.8 1026.9 0.0
27/03:00pm 16.4 12.7 9.6 64 3.5 W 19 24 10 13 1026.8 1026.9 0.0
27/02:30pm 16.3 12.4 8.8 61 3.9 W 19 24 10 13 1026.8 1026.9 0.0
27/02:00pm 16.3 12.2 8.8 61 3.8 W 20 28 11 15 1026.9 1027.0 0.0
27/01:30pm 16.7 13.1 8.4 58 4.2 W 17 24 9 13 1027.0 1027.1 0.0
27/01:00pm 16.6 12.7 8.6 59 4.1 W 19 24 10 13 1027.2 1027.3 0.0
27/12:30pm 16.5 12.6 8.7 60 4.0 W 19 24 10 13 1027.7 1027.8 0.0
27/12:00pm 16.5 12.1 9.0 61 3.9 W 22 28 12 15 1028.0 1028.1 0.0
27/11:30am 16.7 13.0 9.4 62 3.8 WNW 19 24 10 13 1027.9 1028.0 0.0
27/11:00am 16.2 12.8 9.2 63 3.6 WNW 17 22 9 12 1028.1 1028.2 0.0
27/10:30am 15.6 12.5 8.8 64 3.5 WNW 15 24 8 13 1028.2 1028.3 0.0
27/10:00am 15.3 12.9 10.1 71 2.7 NW 13 17 7 9 1028.2 1028.3 0.0
27/09:30am 14.0 12.3 9.8 76 2.2 NW 9 17 5 9 1028.1 1028.2 0.0
27/09:00am 12.5 11.5 11.1 91 0.7 NNW 7 9 4 5 1028.0 1028.1 0.4
27/08:30am 10.5 8.9 10.3 99 0.1 NNW 9 13 5 7 1027.7 1027.8 0.4
27/08:00am 7.6 5.7 7.5 99 0.0 NNW 7 9 4 5 1027.4 1027.5 0.4
27/07:34am 6.9 4.1 6.8 99 0.0 NNW 11 15 6 8 1027.2 1027.3 0.4
27/07:30am 6.6 3.3 6.5 99 0.0 NNW 13 15 7 8 1027.1 1027.2 0.4
27/07:00am 5.8 2.4 5.7 99 0.0 N 13 17 7 9 1026.5 1026.6 0.4
27/06:30am 5.5 2.0 5.4 99 0.0 N 13 17 7 9 1026.3 1026.4 0.4
27/06:20am 5.0 1.0 4.9 99 0.0 N 15 17 8 9 1026.3 1026.4 0.4
27/06:00am 5.8 2.4 5.7 99 0.0 N 13 17 7 9 1026.1 1026.2 0.4
27/05:30am 5.4 2.6 5.3 99 0.0 N 9 11 5 6 1026.1 1026.2 0.4
27/05:00am 5.7 3.4 5.6 99 0.0 N 7 9 4 5 1026.1 1026.2 0.4
27/04:55am 5.5 3.1 5.4 99 0.0 N 7 9 4 5 1026.1 1026.2 0.4
27/04:30am 5.2 2.8 5.1 99 0.0 N 7 9 4 5 1026.1 1026.2 0.4
27/04:00am 6.6 3.7 6.5 99 0.0 N 11 13 6 7 1026.0 1026.1 0.4
27/03:30am 6.8 3.9 6.7 99 0.0 N 11 13 6 7 1026.1 1026.2 0.4
27/03:25am 6.9 4.1 6.8 99 0.0 N 11 13 6 7 1026.0 1026.1 0.4
27/03:00am 7.2 4.1 7.1 99 0.0 N 13 17 7 9 1026.1 1026.2 0.4
27/02:30am 6.1 3.5 6.0 99 0.0 N 9 11 5 6 1026.4 1026.5 0.4
27/02:05am 6.3 4.1 6.2 99 0.0 N 7 13 4 7 1026.2 1026.3 0.4
27/02:00am 6.6 4.5 6.5 99 0.0 NNE 7 9 4 5 1026.2 1026.3 0.2
27/01:30am 6.6 5.0 6.3 98 0.1 NNE 4 7 2 4 1026.3 1026.4 0.2
27/01:00am 6.4 4.2 6.1 98 0.1 NNE 7 9 4 5 1026.4 1026.5 0.2
27/12:30am 6.0 3.9 5.7 98 0.1 NNE 6 7 3 4 1026.5 1026.6 0.2
27/12:08am 7.9 6.2 7.6 98 0.1 NNE 6 7 3 4 1026.4 1026.5 0.2
27/12:00am 8.4 6.6 8.1 98 0.1 NNE 7 7 4 4 1026.4 1026.5 0.2
 
Date/Time
EST
Temp
°C
App
Temp
°C
Dew
Point
Rel
Hum
%
Delta-T
°C
Wind Press
QNH
hPa
Press
MSL
hPa
Rain
since 9 am
mm
Dir
 
Spd
km/h
Gust
km/h
Spd
kts
Gust
kts
26/11:30pm 7.5 6.9 7.2 98 0.1 CALM 0 0 0 0 1026.5 1026.6 0.2
26/11:00pm 8.9 7.3 8.6 98 0.1 NE 7 7 4 4 1026.6 1026.7 0.2
26/10:30pm 9.4 8.0 8.9 97 0.2 NE 6 9 3 5 1026.6 1026.7 0.2
26/10:00pm 9.0 8.6 8.4 96 0.3 CALM 0 0 0 0 1026.8 1026.9 0.2
26/09:47pm 10.6 9.9 10.1 97 0.3 E 4 6 2 3 1026.7 1026.8 0.2
26/09:30pm 10.9 9.7 10.4 97 0.3 NE 7 11 4 6 1026.6 1026.7 0.2
26/09:10pm 10.7 9.5 10.2 97 0.3 ENE 7 9 4 5 1026.6 1026.7 0.2
26/09:00pm 10.8 9.6 10.3 97 0.3 ENE 7 9 4 5 1026.6 1026.7 0.2
26/08:30pm 10.9 9.3 10.3 96 0.3 ENE 9 11 5 6 1026.6 1026.7 0.0
26/08:17pm 10.9 8.9 10.3 96 0.3 E 11 13 6 7 1026.6 1026.7 0.0
26/08:00pm 11.3 9.8 10.7 96 0.3 E 9 13 5 7 1026.6 1026.7 0.0
26/07:30pm 11.3 10.2 10.5 95 0.4 E 7 11 4 6 1026.6 1026.7 0.0
26/07:00pm 11.2 10.0 10.3 94 0.5 ESE 7 9 4 5 1026.5 1026.6 0.0
26/06:31pm 11.8 10.0 10.7 93 0.6 E 11 13 6 7 1026.0 1026.1 0.0
26/06:30pm 11.8 10.0 10.7 93 0.6 E 11 13 6 7 1026.0 1026.1 0.0
26/06:00pm 12.3 10.5 10.7 90 0.8 E 11 17 6 9 1025.9 1026.0 0.0
26/05:30pm 13.2 11.0 10.9 86 1.2 E 13 20 7 11 1025.7 1025.8 0.0
26/05:00pm 13.9 11.8 11.1 83 1.5 E 13 19 7 10 1025.8 1025.9 0.0
26/04:30pm 14.6 12.5 11.2 80 1.8 E 13 19 7 10 1025.6 1025.7 0.0
26/04:00pm 14.7 12.5 10.9 78 2.0 E 13 19 7 10 1025.9 1026.0 0.0
26/03:30pm 15.2 12.7 11.2 77 2.1 E 15 22 8 12 1026.0 1026.1 0.0
26/03:00pm 14.9 12.7 10.9 77 2.1 E 13 22 7 12 1026.2 1026.3 0.0
26/02:30pm 14.7 12.4 10.5 76 2.2 E 13 19 7 10 1026.3 1026.4 0.0
26/02:00pm 14.8 12.1 10.4 75 2.3 E 15 22 8 12 1026.4 1026.5 0.0
26/01:30pm 15.0 12.3 10.2 73 2.5 E 15 22 8 12 1026.4 1026.5 0.0
26/01:00pm 14.2 10.9 9.6 74 2.4 E 17 24 9 13 1027.0 1027.1 0.0
26/12:30pm 14.0 11.4 9.4 74 2.4 E 13 17 7 9 1027.7 1027.8 0.0
26/12:00pm 14.3 11.3 9.1 71 2.6 E 15 24 8 13 1028.2 1028.3 0.0
26/11:30am 13.7 11.8 9.2 74 2.3 E 9 15 5 8 1028.7 1028.8 0.0
26/11:00am 12.5 10.6 9.0 79 1.8 E 9 15 5 8 1029.0 1029.1 0.0
26/10:30am 12.1 10.2 8.9 81 1.6 E 9 17 5 9 1029.2 1029.3 0.0
26/10:00am 10.8 9.4 9.7 93 0.6 ESE 7 9 4 5 1029.5 1029.6 0.0
26/09:30am 10.1 8.8 9.8 98 0.2 ESE 7 11 4 6 1029.8 1029.9 0.0
26/09:00am 9.7 9.6 9.6 99 0.0 CALM 0 0 0 0 1029.8 1029.9 0.0
26/08:30am 8.7 8.4 8.6 99 0.0 CALM 0 0 0 0 1029.6 1029.7 0.0
26/08:15am 7.4 6.7 7.1 98 0.1 CALM 0 0 0 0 1029.5 1029.6 0.0
26/08:00am 6.5 5.6 6.2 98 0.1 CALM 0 0 0 0 1029.3 1029.4 0.0
26/07:30am 4.8 3.6 4.4 97 0.2 CALM 0 0 0 0 1029.3 1029.4 0.0
26/07:00am 4.8 3.6 4.4 97 0.2 CALM 0 0 0 0 1028.9 1029.0 0.0
26/06:30am 5.0 3.8 4.4 96 0.3 CALM 0 0 0 0 1028.6 1028.7 0.0
26/06:00am 6.4 5.5 6.0 97 0.2 CALM 0 0 0 0 1028.5 1028.6 0.0
26/05:58am 6.8 6.0 6.4 97 0.2 CALM 0 0 0 0 1028.4 1028.5 0.0
26/05:34am 7.2 5.3 6.8 97 0.2 ESE 6 7 3 4 1028.4 1028.5 0.0
26/05:30am 7.2 5.3 6.8 97 0.2 ESE 6 7 3 4 1028.4 1028.5 0.0
26/05:18am 6.8 4.8 6.2 96 0.3 ESE 6 7 3 4 1028.4 1028.5 0.0
26/05:00am 7.3 5.8 6.7 96 0.3 ESE 4 7 2 4 1028.5 1028.6 0.0
26/04:30am 7.9 7.3 7.3 96 0.3 CALM 0 0 0 0 1028.6 1028.7 0.0
26/04:00am 8.9 8.1 8.3 96 0.3 ESE 2 7 1 4 1028.7 1028.8 0.0
26/03:42am 9.0 7.5 8.4 96 0.3 ESE 6 7 3 4 1028.7 1028.8 0.0
26/03:30am 8.7 8.2 7.9 95 0.4 CALM 0 0 0 0 1028.7 1028.8 0.0
26/03:29am 8.7 8.2 7.9 95 0.4 CALM 0 0 0 0 1028.7 1028.8 0.0
26/03:28am 8.7 8.2 7.9 95 0.4 CALM 0 0 0 0 1028.7 1028.8 0.0
26/03:00am 9.7 9.1 9.1 96 0.3 ESE 2 7 1 4 1028.9 1029.0 0.0
26/02:49am 9.9 8.6 9.3 96 0.3 ESE 6 7 3 4 1028.9 1029.0 0.0
26/02:47am 9.9 8.6 9.3 96 0.3 ESE 6 7 3 4 1028.9 1029.0 0.0
26/02:33am 9.4 9.1 8.6 95 0.4 CALM 0 0 0 0 1029.0 1029.1 0.0
26/02:30am 9.3 9.0 8.5 95 0.4 CALM 0 0 0 0 1029.0 1029.1 0.0
26/02:00am 9.2 7.5 8.4 95 0.4 ESE 7 7 4 4 1029.1 1029.2 0.0
26/01:30am 9.4 7.8 8.6 95 0.4 ESE 7 9 4 5 1029.2 1029.3 0.0
26/01:00am 9.5 7.9 8.9 96 0.3 ESE 7 11 4 6 1029.3 1029.4 0.0
26/12:30am 9.7 8.3 9.4 98 0.1 ESE 7 11 4 6 1029.5 1029.6 0.0
26/12:00am 8.5 8.1 8.2 98 0.1 CALM 0 7 0 4 1029.7 1029.8 0.0
 
Date/Time
EST
Temp
°C
App
Temp
°C
Dew
Point
Rel
Hum
%
Delta-T
°C
Wind Press
QNH
hPa
Press
MSL
hPa
Rain
since 9 am
mm
Dir
 
Spd
km/h
Gust
km/h
Spd
kts
Gust
kts
25/11:30pm 7.6 7.0 7.2 97 0.2 CALM 0 0 0 0 1029.9 1030.0 0.0
25/11:00pm 6.6 5.7 6.2 97 0.2 CALM 0 0 0 0 1030.1 1030.2 0.0
25/10:47pm 6.4 5.5 6.0 97 0.2 CALM 0 0 0 0 1030.1 1030.2 0.0
25/10:30pm 6.4 5.5 6.0 97 0.2 CALM 0 0 0 0 1030.1 1030.2 0.0
25/10:09pm 6.5 5.6 5.9 96 0.3 CALM 0 0 0 0 1030.1 1030.2 0.0
25/10:00pm 6.6 5.7 6.0 96 0.3 CALM 0 0 0 0 1030.1 1030.2 0.0
25/09:30pm 6.5 5.5 5.8 95 0.3 CALM 0 0 0 0 1030.2 1030.3 0.0
25/09:00pm 6.8 5.5 6.1 95 0.3 SE 2 7 1 4 1030.1 1030.2 0.0
25/08:56pm 7.5 6.0 6.8 95 0.3 SE 4 7 2 4 1030.1 1030.2 0.0
25/08:40pm 7.7 7.0 7.0 95 0.3 CALM 0 0 0 0 1030.0 1030.1 0.0
25/08:30pm 7.8 7.1 7.1 95 0.3 CALM 0 0 0 0 1030.1 1030.2 0.0
25/08:00pm 8.0 7.3 6.9 93 0.5 CALM 0 0 0 0 1029.9 1030.0 0.0
25/07:30pm 8.6 8.0 7.2 91 0.7 CALM 0 6 0 3 1029.9 1030.0 0.0

Other Formats:

Comma delimited format used in spreadsheet applications
http://www.bom.gov.au/fwo/IDV60801/IDV60801.94828.axf

JavaScript Object Notation format (JSON) in row-major order
http://www.bom.gov.au/fwo/IDV60801/IDV60801.94828.json